Главная страница
METAR-TAF:

METAR-TAF

Аэропорты :

Векшё, Швеция

широта: 56-51N, долгота: 014-50E, высота над уровнем моря: 199 м

Текущие метеонаблюдения

Эта сводка был подготовлена 30 минут назад, в 02:20 UTC
Ветер 12 Узел от западный
Температура 3°C
Влажность 100%
Давление 1022 hPa
Видимость 10 км и более

METAR: ESMX 240220Z AUTO 27012KT 9999 NCD 03/03 Q1022

Время: 03:50 (02:50 UTC)

Прогноз

Эта сводка был подготовлена 18 часа и 20 минут назад, в 08:30 UTC
Прогноз действительный с 23-го 09 UTC до 23-го 11 UTC
Ветер 12 Узел от западный-юго-западный
Видимость: 4000 м
Рассеянная облачность на высоте 800 фута
дымка
изменения
С 23-го 09 UTC до 23-го 11 UTC
Ветер 15 Узел от западный с порывами до 25 Узел
Видимость 10 км и более
Рассеянная облачность на высоте 2000 фута

TAF: ESMX 230830Z 2309/2311 24012KT 4000 BR BKN008 BECMG 2309/2311 27015G25KT 9999 NSW BKN020

Метеонаблюдения и прогнозы для более 4000 аэропортов (сводки METAR и TAF).

Имеющиеся станции представлены на карте желтыми и красными точками.

Чтобы увидеть название станции, наведите на нее мышь.

Затем щелкните, чтобы увидеть метеонаблюдения и метеопрогнозы.

Управление картой: чтобы увеличить масштаб, щелкните зеленые кнопки с черным крестиком; чтобы уменьшить масштаб, щелкните зеленую кнопку с тире; для просмотра соседних карт щелкайте зеленые стрелки.


METAR-TAF: